Airport Name : Rogue Valley Intl Medford

Other Name : Medford

ICAO : KMFR

IATA : MFR

FAA : MFR

Latitude : 42.374228

Longitude : -122.8735

Country : United States

Local Date and Time : 29 Nov 2020 08:19

 

TAF (Terminal Aerodrome Forecast)

KMFR 291128Z 2912/3012 00000KT 1/2SM FG VV002 FM292000 VRB02KT 4SM BR OVC004 FM300300 32001KT 1/2SM FG OVC002

 

METAR (METeorological Aerodrome Report)

KMFR 291553Z 00000KT 1/2SM R14/5000VP6000FT FZFG OVC002 M01/M01 A3029 RMK AO2 SLP269 T10061011

KMFR 291523Z 00000KT 3/4SM R14/3500VP6000FT BR OVC002 00/M01 A3029 RMK AO2 T00001011

KMFR 291453Z 05003KT 1SM R14/4500VP6000FT BR OVC002 M01/M02 A3028 RMK AO2 SLP266 T10061017 55000

KMFR 291443Z 03004KT 1SM R14/4500VP6000FT BR OVC002 00/M02 A3028 RMK AO2 T00001017

KMFR 291408Z 00000KT 3/4SM R14/3500V4500FT BR VV003 M01/M01 A3028 RMK AO2 T10061011

KMFR 291353Z 00000KT 1SM R14/4500V5000FT BR OVC002 M01/M02 A3028 RMK AO2 SLP265 T10061017

KMFR 291340Z AUTO 36003KT 3/4SM R14/4000V6000FT BR OVC002 M01/M02 A3028 RMK AO2 T10061017

KMFR 291329Z AUTO 04003KT 1 1/4SM R14/3500V4500FT BR OVC002 00/M02 A3028 RMK AO2 T00001017

KMFR 291253Z AUTO 02003KT 1/2SM R14/3500V4500FT FG VV002 00/M01 A3028 RMK AO2 SLP264 T00001011

To Charter a Jet Click here.